Time;durP1;ratioP1;P1;durP2;ratioP2;P2;SDS_P1;SDS_P2;PMS_P1;PMS_P2;Temp;Humidity;BMP_temperature;BMP_pressure;BME280_temperature;BME280_humidity;BME280_pressure;Samples;Min_cycle;Max_cycle;Signal;HPM_P1;HPM_P2
2023/01/14 00:00:11;;;;;;;8.63;1.70;;;11.20;99.90;;;;;;6374592;22;20010;-85
2023/01/14 00:02:37;;;;;;;5.07;1.35;;;11.20;99.90;;;;;;6374221;22;20055;-86
2023/01/14 00:05:06;;;;;;;7.32;1.35;;;11.20;99.90;;;;;;6347005;22;20002;-86
2023/01/14 00:07:31;;;;;;;9.07;1.50;;;11.20;99.90;;;;;;6346520;22;19998;-85
2023/01/14 00:09:57;;;;;;;5.60;1.45;;;11.20;99.90;;;;;;6346793;22;20422;-83
2023/01/14 00:12:23;;;;;;;5.35;1.40;;;11.10;99.90;;;;;;6346684;22;20006;-84
2023/01/14 00:14:48;;;;;;;5.95;1.30;;;11.10;99.90;;;;;;6346397;22;20013;-84
2023/01/14 00:17:14;;;;;;;7.35;1.40;;;11.10;99.90;;;;;;6374446;22;20072;-84
2023/01/14 00:19:40;;;;;;;5.22;1.55;;;11.10;99.90;;;;;;6346656;22;20010;-84
2023/01/14 00:22:06;;;;;;;8.48;1.58;;;11.10;99.90;;;;;;6346293;22;20002;-84
2023/01/14 00:24:31;;;;;;;8.95;1.73;;;11.10;99.90;;;;;;6346209;22;20044;-85
2023/01/14 00:26:57;;;;;;;3.75;1.35;;;11.10;99.90;;;;;;6374466;22;20002;-84
2023/01/14 00:29:29;;;;;;;9.63;1.60;;;11.10;99.90;;;;;;6374527;22;20006;-84
2023/01/14 00:31:56;;;;;;;7.78;1.90;;;11.10;99.90;;;;;;6374625;22;20005;-84
2023/01/14 00:34:24;;;;;;;7.68;2.00;;;11.10;99.90;;;;;;6374426;22;19998;-84
2023/01/14 00:36:50;;;;;;;7.72;1.55;;;11.00;99.90;;;;;;6345863;22;20003;-85
2023/01/14 00:39:16;;;;;;;7.45;1.70;;;11.00;99.90;;;;;;6347136;22;20338;-83
2023/01/14 00:41:42;;;;;;;5.70;1.45;;;11.00;99.90;;;;;;6346692;22;20003;-85
2023/01/14 00:44:08;;;;;;;6.05;1.20;;;11.00;99.90;;;;;;6346837;22;20003;-85
2023/01/14 00:46:36;;;;;;;7.50;1.70;;;11.00;99.90;;;;;;6346549;22;20030;-85
2023/01/14 00:49:07;;;;;;;6.22;1.33;;;11.00;99.90;;;;;;6346224;22;19999;-85
2023/01/14 00:51:33;;;;;;;6.32;1.30;;;11.00;99.90;;;;;;6346205;22;20446;-85
2023/01/14 00:54:00;;;;;;;6.40;1.27;;;11.00;99.90;;;;;;6346281;22;19999;-85
2023/01/14 00:56:27;;;;;;;5.40;1.20;;;11.00;99.90;;;;;;6346853;22;19998;-85
2023/01/14 00:58:53;;;;;;;7.72;2.00;;;11.00;99.90;;;;;;6346616;22;20046;-85
2023/01/14 01:01:19;;;;;;;7.88;1.35;;;11.00;99.90;;;;;;6374089;22;20046;-85
2023/01/14 01:03:48;;;;;;;9.10;1.55;;;11.00;99.90;;;;;;6346892;22;19998;-86
2023/01/14 01:06:16;;;;;;;5.90;1.27;;;11.00;99.90;;;;;;6346727;22;20005;-86
2023/01/14 01:08:42;;;;;;;5.82;1.40;;;11.00;99.90;;;;;;6374613;22;20477;-86
2023/01/14 01:11:09;;;;;;;4.97;0.98;;;11.00;99.90;;;;;;6374638;22;20459;-85
2023/01/14 01:13:36;;;;;;;7.25;2.00;;;11.10;99.90;;;;;;6346772;22;20003;-86
2023/01/14 01:16:07;;;;;;;3.63;1.10;;;11.10;99.90;;;;;;6346966;22;20019;-87
2023/01/14 01:18:33;;;;;;;4.72;1.33;;;11.10;99.90;;;;;;6375137;22;20006;-86
2023/01/14 01:21:14;;;;;;;6.18;1.65;;;11.10;99.90;;;;;;6348623;22;20014;-86
2023/01/14 01:23:41;;;;;;;5.13;1.48;;;11.10;99.90;;;;;;6348133;22;20377;-86
2023/01/14 01:26:10;;;;;;;6.65;1.40;;;11.10;99.90;;;;;;6348638;22;19998;-86
2023/01/14 01:28:36;;;;;;;5.13;1.40;;;11.10;99.90;;;;;;6348606;22;19999;-86
2023/01/14 01:31:05;;;;;;;4.53;1.50;;;11.10;99.90;;;;;;6376347;22;20442;-86
2023/01/14 01:33:30;;;;;;;6.60;1.63;;;11.10;99.90;;;;;;6348486;22;20010;-86
2023/01/14 01:36:00;;;;;;;4.22;1.20;;;11.10;99.90;;;;;;6348764;22;20497;-86
2023/01/14 01:38:25;;;;;;;5.97;1.20;;;11.10;99.90;;;;;;6375816;22;20054;-85
2023/01/14 01:40:51;;;;;;;5.68;1.20;;;11.10;99.90;;;;;;6347866;22;20037;-85
2023/01/14 01:43:18;;;;;;;6.22;1.83;;;11.10;99.90;;;;;;6347616;22;20485;-84
2023/01/14 01:45:49;;;;;;;5.45;1.08;;;11.10;99.90;;;;;;6347823;22;20082;-85
2023/01/14 01:48:24;;;;;;;5.38;1.80;;;11.10;99.90;;;;;;6347587;22;20003;-85
2023/01/14 01:50:57;;;;;;;5.25;1.30;;;11.00;99.90;;;;;;6375742;22;20054;-85
2023/01/14 01:53:24;;;;;;;6.05;1.10;;;11.00;99.90;;;;;;6347481;22;20009;-85
2023/01/14 01:55:54;;;;;;;4.15;1.10;;;11.00;99.90;;;;;;6347944;22;20006;-83
2023/01/14 01:58:21;;;;;;;7.10;1.50;;;11.00;99.90;;;;;;6347635;22;20027;-83
2023/01/14 02:00:47;;;;;;;5.53;1.38;;;11.00;99.90;;;;;;6347408;22;20621;-85
2023/01/14 02:03:20;;;;;;;4.57;1.00;;;11.00;99.90;;;;;;6347455;22;20002;-85
2023/01/14 02:05:47;;;;;;;4.38;1.60;;;11.00;99.90;;;;;;6347486;22;19998;-85
2023/01/14 02:08:13;;;;;;;4.82;1.15;;;11.00;99.90;;;;;;6375491;22;20426;-85
2023/01/14 02:11:29;;;;;;;3.90;0.93;;;10.90;99.90;;;;;;6347955;22;20029;-85
2023/01/14 02:14:01;;;;;;;4.68;1.38;;;11.00;99.90;;;;;;6263101;22;20481;-85
2023/01/14 02:16:51;;;;;;;6.47;1.40;;;10.90;99.90;;;;;;6375507;22;20014;-85
2023/01/14 02:19:35;;;;;;;7.00;1.30;;;10.90;99.90;;;;;;6375461;22;19999;-85
2023/01/14 02:22:10;;;;;;;4.50;1.15;;;10.90;99.90;;;;;;6375520;22;20025;-86
2023/01/14 02:24:58;;;;;;;6.20;1.52;;;10.90;99.90;;;;;;6348396;22;19998;-87
2023/01/14 02:27:59;;;;;;;5.43;1.02;;;10.90;99.90;;;;;;6348309;22;20073;-87
2023/01/14 02:30:31;;;;;;;3.58;0.85;;;10.90;99.90;;;;;;6348093;22;20009;-88
2023/01/14 02:33:22;;;;;;;7.28;1.48;;;10.90;99.90;;;;;;6348212;22;20030;-86
2023/01/14 02:35:57;;;;;;;5.60;1.52;;;10.90;99.90;;;;;;6348498;22;20007;-87
2023/01/14 02:38:49;;;;;;;4.15;0.80;;;10.90;99.90;;;;;;6348353;22;20009;-88
2023/01/14 02:44:30;;;;;;;6.10;1.35;;;10.90;99.90;;;;;;6377527;22;20024;-85
2023/01/14 02:47:09;;;;;;;4.28;1.40;;;10.90;99.90;;;;;;6347751;22;19998;-85
2023/01/14 02:49:40;;;;;;;6.07;1.55;;;10.90;99.90;;;;;;6337983;22;20037;-85
2023/01/14 02:52:08;;;;;;;6.82;1.10;;;10.90;99.90;;;;;;6375539;22;19998;-86
2023/01/14 02:54:34;;;;;;;7.07;1.50;;;10.90;99.90;;;;;;6348117;22;20089;-85
2023/01/14 02:57:07;;;;;;;2.85;0.73;;;10.90;99.90;;;;;;6347468;22;20009;-84
2023/01/14 03:00:01;;;;;;;7.70;1.23;;;10.90;99.90;;;;;;6347031;22;20002;-86
2023/01/14 03:02:45;;;;;;;6.78;1.17;;;10.90;99.90;;;;;;6346991;22;20052;-85
2023/01/14 03:05:37;;;;;;;4.05;1.00;;;10.90;99.90;;;;;;6347179;22;19999;-85
2023/01/14 03:08:27;;;;;;;6.22;1.10;;;11.00;99.90;;;;;;6375362;22;20003;-85
2023/01/14 03:11:02;;;;;;;4.72;1.08;;;11.00;99.90;;;;;;6347503;22;20023;-86
2023/01/14 03:13:36;;;;;;;5.30;1.25;;;11.00;99.90;;;;;;6347141;22;20433;-83
2023/01/14 03:16:29;;;;;;;5.82;1.40;;;11.00;99.90;;;;;;6346994;22;20067;-85
2023/01/14 03:19:23;;;;;;;4.68;1.25;;;11.00;99.90;;;;;;6375073;22;19999;-84
2023/01/14 03:21:53;;;;;;;4.95;1.33;;;11.00;99.90;;;;;;6346884;22;20006;-85
2023/01/14 03:24:30;;;;;;;3.80;1.00;;;11.10;99.90;;;;;;6375408;22;20005;-88
2023/01/14 03:27:02;;;;;;;5.53;1.20;;;11.10;99.90;;;;;;6346850;22;20061;-85
2023/01/14 03:29:37;;;;;;;3.58;0.90;;;11.10;99.90;;;;;;6346812;22;20007;-85
2023/01/14 03:32:07;;;;;;;4.40;0.90;;;11.10;99.90;;;;;;6347025;22;20007;-85
2023/01/14 03:34:43;;;;;;;6.93;1.58;;;11.10;99.90;;;;;;6346858;22;20385;-85
2023/01/14 03:37:12;;;;;;;4.88;1.20;;;11.10;99.90;;;;;;6346288;22;20342;-85
2023/01/14 03:39:42;;;;;;;4.78;0.93;;;11.10;99.90;;;;;;6374553;22;19998;-85
2023/01/14 03:42:18;;;;;;;3.97;1.08;;;11.10;99.90;;;;;;6346865;22;20446;-85
2023/01/14 03:44:53;;;;;;;4.63;1.10;;;11.10;99.90;;;;;;6347026;22;20049;-85
2023/01/14 03:47:21;;;;;;;5.15;1.13;;;11.10;99.90;;;;;;6374858;22;19994;-85
2023/01/14 03:49:48;;;;;;;2.70;1.10;;;11.20;99.90;;;;;;6346909;22;20092;-85
2023/01/14 03:52:23;;;;;;;3.85;0.90;;;11.20;99.90;;;;;;6374905;22;19998;-86
2023/01/14 03:54:56;;;;;;;3.13;0.77;;;11.20;99.90;;;;;;6347048;22;20009;-85
2023/01/14 03:57:33;;;;;;;2.80;0.77;;;11.20;99.90;;;;;;6347084;22;20010;-85
2023/01/14 04:00:09;;;;;;;3.20;0.70;;;11.20;99.90;;;;;;6346617;22;20003;-86
2023/01/14 04:02:37;;;;;;;2.92;0.70;;;11.30;99.90;;;;;;6346877;22;20024;-86
2023/01/14 04:05:03;;;;;;;3.00;0.60;;;11.30;99.90;;;;;;6347228;22;19998;-86
2023/01/14 04:07:29;;;;;;;1.33;0.57;;;11.40;99.90;;;;;;6346743;22;20062;-88
2023/01/14 04:09:55;;;;;;;3.15;0.70;;;11.40;99.90;;;;;;6346643;22;20340;-85
2023/01/14 04:12:20;;;;;;;2.85;0.90;;;11.50;99.90;;;;;;6346696;22;20003;-85
2023/01/14 04:17:37;;;;;;;2.75;0.50;;;11.60;99.90;;;;;;6342833;22;20482;-85
2023/01/14 04:20:04;;;;;;;1.75;0.43;;;11.70;99.90;;;;;;6315307;22;20013;-85
2023/01/14 04:22:29;;;;;;;1.77;0.50;;;11.70;99.90;;;;;;6315257;22;20031;-85
2023/01/14 04:24:55;;;;;;;3.33;0.60;;;11.80;99.90;;;;;;6343086;22;20002;-85
2023/01/14 04:27:21;;;;;;;1.55;0.40;;;11.90;99.90;;;;;;6343261;22;20387;-85
2023/01/14 04:29:47;;;;;;;1.58;0.40;;;11.90;99.90;;;;;;6315464;22;20021;-84
2023/01/14 04:32:12;;;;;;;1.35;0.40;;;12.00;99.90;;;;;;6314854;22;20090;-85
2023/01/14 04:34:38;;;;;;;4.05;0.60;;;12.10;99.90;;;;;;6315103;22;20063;-84
2023/01/14 04:37:04;;;;;;;2.60;0.60;;;12.20;99.90;;;;;;6314925;22;20010;-84
2023/01/14 04:39:29;;;;;;;1.83;0.60;;;12.20;99.90;;;;;;6315544;22;20451;-87
2023/01/14 04:44:39;;;;;;;2.63;0.65;;;12.30;99.90;;;;;;6343094;22;20009;-85
2023/01/14 04:47:05;;;;;;;1.67;0.60;;;12.40;99.90;;;;;;6342610;22;19995;-84
2023/01/14 04:49:30;;;;;;;3.10;0.68;;;12.50;99.90;;;;;;6315155;22;20506;-84
2023/01/14 04:51:56;;;;;;;1.60;0.57;;;12.50;99.90;;;;;;6342587;22;19999;-84
2023/01/14 04:54:22;;;;;;;3.00;0.85;;;12.60;99.90;;;;;;6344059;22;20026;-85
2023/01/14 04:56:47;;;;;;;3.17;0.52;;;12.60;99.90;;;;;;6317041;22;20066;-84
2023/01/14 04:59:13;;;;;;;2.97;0.80;;;12.70;99.90;;;;;;6317653;22;20004;-88
2023/01/14 05:01:39;;;;;;;2.17;0.60;;;12.70;99.90;;;;;;6316399;22;20003;-85
2023/01/14 05:04:05;;;;;;;2.88;0.95;;;12.70;99.90;;;;;;6316588;22;20371;-84
2023/01/14 05:06:30;;;;;;;4.15;0.90;;;12.80;99.90;;;;;;6316399;22;20431;-84
2023/01/14 05:08:56;;;;;;;1.90;0.82;;;12.80;99.90;;;;;;6317153;22;19999;-87
2023/01/14 05:11:22;;;;;;;3.33;0.60;;;12.80;99.90;;;;;;6344682;22;20037;-85
2023/01/14 05:13:48;;;;;;;4.05;0.65;;;12.80;99.90;;;;;;6316722;22;20071;-86
2023/01/14 05:16:16;;;;;;;4.45;1.02;;;12.80;99.90;;;;;;6316656;22;20014;-86
2023/01/14 05:18:42;;;;;;;2.10;0.73;;;12.80;99.90;;;;;;6316393;22;20452;-86
2023/01/14 05:21:08;;;;;;;1.70;0.60;;;12.90;99.90;;;;;;6317100;22;20007;-85
2023/01/14 05:23:34;;;;;;;3.13;0.60;;;12.90;99.90;;;;;;6316592;22;20420;-85
2023/01/14 05:25:59;;;;;;;3.00;0.68;;;12.90;99.90;;;;;;6316807;22;20009;-85
2023/01/14 05:28:25;;;;;;;3.17;0.75;;;12.90;99.90;;;;;;6344309;22;20076;-84
2023/01/14 05:30:51;;;;;;;3.78;0.90;;;13.00;99.90;;;;;;6344427;22;20006;-86
2023/01/14 05:33:17;;;;;;;2.08;1.05;;;13.00;99.90;;;;;;6317126;22;20003;-90
2023/01/14 05:35:43;;;;;;;4.45;1.05;;;13.00;99.90;;;;;;6317915;22;20075;-88
2023/01/14 05:38:09;;;;;;;3.67;0.60;;;13.00;99.90;;;;;;6316995;22;20136;-90
2023/01/14 05:40:35;;;;;;;2.90;0.70;;;13.00;99.90;;;;;;6317889;22;20007;-85
2023/01/14 05:45:48;;;;;;;1.55;0.60;;;13.00;99.90;;;;;;6344087;22;20060;-84
2023/01/14 05:48:16;;;;;;;1.63;0.47;;;13.00;99.90;;;;;;6316730;22;20005;-85
2023/01/14 05:50:42;;;;;;;5.72;0.95;;;13.00;99.90;;;;;;6316835;22;20048;-83
2023/01/14 05:53:08;;;;;;;2.42;0.60;;;13.00;99.90;;;;;;6316142;22;20006;-83
2023/01/14 05:55:35;;;;;;;2.85;0.77;;;13.00;99.90;;;;;;6316725;22;20006;-83
2023/01/14 05:58:03;;;;;;;3.03;0.70;;;13.00;99.90;;;;;;6316173;22;20086;-83
2023/01/14 06:06:22;;;;;;;3.95;1.00;;;13.00;99.90;;;;;;6343944;22;20048;-82
2023/01/14 06:09:00;;;;;;;6.47;1.08;;;13.10;99.90;;;;;;6344489;22;19998;-85
2023/01/14 06:11:27;;;;;;;3.80;0.90;;;13.10;99.90;;;;;;6316108;22;20034;-85
2023/01/14 06:13:56;;;;;;;1.70;0.60;;;13.10;99.90;;;;;;6316516;22;20071;-86
2023/01/14 06:16:23;;;;;;;4.15;0.75;;;13.10;99.90;;;;;;6315942;22;20047;-85
2023/01/14 06:18:49;;;;;;;3.28;0.80;;;13.00;99.90;;;;;;6316448;22;20003;-87
2023/01/14 06:21:21;;;;;;;4.25;1.05;;;13.10;99.90;;;;;;6315752;22;20034;-85
2023/01/14 06:23:47;;;;;;;4.70;0.63;;;13.20;99.90;;;;;;6343572;22;20432;-85
2023/01/14 06:26:18;;;;;;;2.45;0.80;;;13.10;99.90;;;;;;6316133;22;19998;-85
2023/01/14 06:28:44;;;;;;;2.22;0.80;;;13.20;99.90;;;;;;6316092;22;20006;-85
2023/01/14 06:31:12;;;;;;;5.47;1.30;;;13.10;99.90;;;;;;6316961;22;20002;-87
2023/01/14 06:33:38;;;;;;;3.97;0.85;;;13.10;99.90;;;;;;6316255;22;20002;-85
2023/01/14 06:36:04;;;;;;;3.40;0.70;;;13.20;99.90;;;;;;6316912;22;20034;-86
2023/01/14 06:38:30;;;;;;;4.68;0.70;;;13.20;99.90;;;;;;6344229;22;20003;-86
2023/01/14 06:41:00;;;;;;;4.72;1.00;;;13.10;99.90;;;;;;6316558;22;20156;-86
2023/01/14 06:43:26;;;;;;;4.30;1.15;;;13.20;99.90;;;;;;6343852;22;20018;-86
2023/01/14 06:45:53;;;;;;;2.80;0.80;;;13.20;99.90;;;;;;6316452;22;20385;-86
2023/01/14 06:48:19;;;;;;;3.88;0.88;;;13.20;99.90;;;;;;6316008;22;20444;-85
2023/01/14 06:50:44;;;;;;;3.05;1.10;;;13.10;99.90;;;;;;6315510;22;20014;-85
2023/01/14 06:53:10;;;;;;;3.00;0.65;;;13.10;99.90;;;;;;6315479;22;20324;-87
2023/01/14 06:55:36;;;;;;;6.70;1.27;;;13.00;99.90;;;;;;6316519;22;20007;-87
2023/01/14 06:58:01;;;;;;;3.85;1.23;;;13.10;99.90;;;;;;6317394;22;20006;-91
2023/01/14 07:00:27;;;;;;;5.43;1.05;;;13.10;99.90;;;;;;6316490;22;20339;-85
2023/01/14 07:02:53;;;;;;;4.47;0.68;;;13.10;99.90;;;;;;6316065;22;20021;-82
2023/01/14 07:05:18;;;;;;;4.57;1.08;;;13.10;99.90;;;;;;6343480;22;19999;-82
2023/01/14 07:07:46;;;;;;;5.10;1.13;;;13.10;99.90;;;;;;6343207;22;19998;-82
2023/01/14 07:10:11;;;;;;;4.78;1.08;;;13.10;99.90;;;;;;6316020;22;20007;-83
2023/01/14 07:12:37;;;;;;;3.92;0.90;;;13.10;99.90;;;;;;6315775;22;20075;-83
2023/01/14 07:15:03;;;;;;;6.40;1.40;;;13.10;99.90;;;;;;6343270;22;20085;-83
2023/01/14 07:17:28;;;;;;;5.07;1.20;;;13.00;99.90;;;;;;6315064;22;20013;-83
2023/01/14 07:19:54;;;;;;;3.25;1.00;;;13.00;99.90;;;;;;6315999;22;20331;-83
2023/01/14 07:22:20;;;;;;;6.13;1.60;;;13.00;99.90;;;;;;6342822;22;19994;-83
2023/01/14 07:24:45;;;;;;;3.60;1.15;;;13.00;99.90;;;;;;6315567;22;19999;-85
2023/01/14 07:27:11;;;;;;;5.00;1.13;;;13.00;99.90;;;;;;6315520;22;20625;-84
2023/01/14 07:29:37;;;;;;;7.05;1.05;;;13.10;99.90;;;;;;6315493;22;20317;-87
2023/01/14 07:32:02;;;;;;;4.25;1.00;;;13.10;99.90;;;;;;6316190;22;20011;-88
2023/01/14 07:34:28;;;;;;;5.13;1.23;;;13.10;99.90;;;;;;6316569;22;20006;-90
2023/01/14 07:36:54;;;;;;;6.80;1.20;;;13.10;99.90;;;;;;6316189;22;20021;-86
2023/01/14 07:39:19;;;;;;;3.80;1.10;;;13.10;99.90;;;;;;6343756;22;20053;-86
2023/01/14 07:41:45;;;;;;;6.65;1.00;;;13.10;99.90;;;;;;6343983;22;20007;-88
2023/01/14 07:44:23;;;;;;;3.90;1.00;;;13.10;99.90;;;;;;6343642;22;19998;-86
2023/01/14 07:46:52;;;;;;;3.97;0.85;;;13.10;99.90;;;;;;6315707;22;20003;-85
2023/01/14 07:49:18;;;;;;;5.45;1.33;;;13.10;99.90;;;;;;6315415;22;20428;-83
2023/01/14 07:51:43;;;;;;;3.60;1.05;;;13.10;99.90;;;;;;6342836;22;19999;-84
2023/01/14 07:54:45;;;;;;;4.80;1.20;;;13.10;99.90;;;;;;6343454;22;20393;-86
2023/01/14 07:57:12;;;;;;;4.18;0.98;;;13.00;99.90;;;;;;6315212;22;20002;-83
2023/01/14 07:59:39;;;;;;;6.03;1.10;;;13.00;99.90;;;;;;6343166;22;20605;-85
2023/01/14 08:02:09;;;;;;;6.97;0.98;;;13.00;99.90;;;;;;6315556;22;20052;-86
2023/01/14 08:04:35;;;;;;;5.70;1.35;;;13.00;99.90;;;;;;6315389;22;20081;-85
2023/01/14 08:07:09;;;;;;;3.72;1.02;;;13.00;99.90;;;;;;6315225;22;20006;-84
2023/01/14 08:09:35;;;;;;;8.35;1.67;;;13.00;99.90;;;;;;6343544;22;20006;-87
2023/01/14 08:12:01;;;;;;;9.32;1.75;;;13.00;99.90;;;;;;6315885;22;20428;-87
2023/01/14 08:14:27;;;;;;;4.85;1.00;;;13.00;99.90;;;;;;6315985;22;20160;-87
2023/01/14 08:16:52;;;;;;;7.85;1.60;;;13.00;99.90;;;;;;6315548;22;20019;-88
2023/01/14 08:19:22;;;;;;;4.63;1.20;;;13.00;99.90;;;;;;6315798;22;20017;-87
2023/01/14 08:21:48;;;;;;;4.13;1.13;;;13.00;99.90;;;;;;6316762;22;20031;-90
2023/01/14 08:24:14;;;;;;;9.23;1.98;;;13.00;99.90;;;;;;6316498;22;20003;-91
2023/01/14 08:26:39;;;;;;;6.20;1.08;;;12.90;99.90;;;;;;6316960;22;20006;-91
2023/01/14 08:29:06;;;;;;;6.82;1.40;;;13.00;99.90;;;;;;6318490;22;20006;-90
2023/01/14 08:31:34;;;;;;;4.88;1.35;;;12.90;99.90;;;;;;6318293;22;20454;-87
2023/01/14 08:34:00;;;;;;;9.85;1.48;;;12.90;99.90;;;;;;6317700;22;20006;-87
2023/01/14 08:36:26;;;;;;;7.10;1.23;;;12.90;99.90;;;;;;6317509;22;20088;-88
2023/01/14 08:39:25;;;;;;;11.05;2.00;;;12.90;99.90;;;;;;6317711;22;20053;-83
2023/01/14 08:41:50;;;;;;;5.05;1.20;;;12.80;99.90;;;;;;6311302;22;20546;-90
2023/01/14 08:44:16;;;;;;;5.05;1.20;;;12.80;99.90;;;;;;6318234;22;20007;-83
2023/01/14 08:46:42;;;;;;;6.10;1.60;;;12.80;99.90;;;;;;6317426;22;20081;-85
2023/01/14 08:49:10;;;;;;;4.93;1.15;;;12.80;99.90;;;;;;6345395;22;19999;-89
2023/01/14 08:51:35;;;;;;;6.90;1.55;;;12.70;99.90;;;;;;6317377;22;19991;-84
2023/01/14 08:54:01;;;;;;;9.05;1.48;;;12.70;99.90;;;;;;6345151;22;19995;-85
2023/01/14 08:56:27;;;;;;;5.75;1.48;;;12.70;99.90;;;;;;6345788;22;20323;-88
2023/01/14 08:58:53;;;;;;;6.38;1.92;;;12.70;99.90;;;;;;6345186;22;20300;-86
2023/01/14 09:01:20;;;;;;;4.45;1.25;;;12.70;99.90;;;;;;6344992;22;20026;-73
2023/01/14 09:03:48;;;;;;;9.18;1.88;;;12.70;99.90;;;;;;6344708;22;20026;-73
2023/01/14 09:06:16;;;;;;;7.35;1.38;;;12.70;99.90;;;;;;6316670;22;20335;-72
2023/01/14 09:17:10;;;;;;;4.78;1.10;;;12.80;99.90;;;;;;6344365;22;20029;-69
2023/01/14 09:19:53;;;;;;;5.43;1.33;;;12.80;99.90;;;;;;6344454;22;20003;-70
2023/01/14 09:22:20;;;;;;;;;;;12.70;99.90;;;;;;6344381;22;19995;-69
2023/01/14 09:24:46;;;;;;;3.83;0.95;;;12.80;99.90;;;;;;6343486;22;19906;-76
2023/01/14 09:27:13;;;;;;;3.58;0.80;;;12.70;99.90;;;;;;6343986;22;20052;-77
2023/01/14 09:29:38;;;;;;;3.15;0.93;;;12.70;99.90;;;;;;6316538;22;20406;-76
2023/01/14 09:32:08;;;;;;;4.65;1.00;;;12.70;99.90;;;;;;6315801;22;20052;-76
2023/01/14 09:34:34;;;;;;;5.97;1.02;;;12.70;99.90;;;;;;6341311;22;20010;-73
2023/01/14 09:37:00;;;;;;;6.68;1.48;;;12.70;99.90;;;;;;6339432;22;20060;-72
2023/01/14 09:39:26;;;;;;;4.32;1.20;;;12.70;99.90;;;;;;6342390;22;20005;-74
2023/01/14 09:42:00;;;;;;;4.10;1.17;;;12.70;99.90;;;;;;6314625;22;19998;-71
2023/01/14 09:44:26;;;;;;;6.15;0.90;;;12.70;99.90;;;;;;6313633;22;20005;-74
2023/01/14 09:46:52;;;;;;;4.70;0.88;;;12.70;99.90;;;;;;6314509;22;20002;-75
2023/01/14 09:49:24;;;;;;;5.75;1.20;;;12.70;99.90;;;;;;6341916;22;20029;-74
2023/01/14 09:51:53;;;;;;;4.80;1.33;;;12.70;99.90;;;;;;6304911;22;20022;-73
2023/01/14 09:54:27;;;;;;;4.35;0.85;;;12.70;99.90;;;;;;6342893;22;20086;-72
2023/01/14 09:57:19;;;;;;;3.75;0.90;;;12.70;99.90;;;;;;6342881;22;19998;-73
2023/01/14 09:59:57;;;;;;;3.90;1.15;;;12.70;99.90;;;;;;6343325;22;20010;-70
2023/01/14 10:02:47;;;;;;;4.95;1.52;;;12.70;99.90;;;;;;6343155;22;20047;-76
2023/01/14 10:05:18;;;;;;;6.45;1.23;;;12.70;99.90;;;;;;6343053;22;20073;-77
2023/01/14 10:07:44;;;;;;;5.07;1.42;;;12.70;99.90;;;;;;6342689;22;19998;-76
2023/01/14 10:10:26;;;;;;;2.85;0.98;;;12.70;99.90;;;;;;6343130;22;20051;-76
2023/01/14 10:12:58;;;;;;;4.80;1.70;;;12.70;99.90;;;;;;6314865;22;19999;-76
2023/01/14 10:15:31;;;;;;;6.00;1.23;;;12.70;99.90;;;;;;6343270;22;20064;-76
2023/01/14 10:18:22;;;;;;;3.10;0.80;;;12.70;99.90;;;;;;6343269;22;20003;-77
2023/01/14 10:21:31;;;;;;;2.47;0.80;;;12.70;99.90;;;;;;6343314;22;19999;-77
2023/01/14 10:23:57;;;;;;;4.72;1.60;;;12.80;99.90;;;;;;6217924;23;20040;-76
2023/01/14 10:26:31;;;;;;;4.50;1.00;;;12.80;99.90;;;;;;6291129;22;20037;-76
2023/01/14 10:29:14;;;;;;;4.25;1.30;;;12.80;99.90;;;;;;6315734;22;20506;-76
2023/01/14 10:31:43;;;;;;;2.35;0.80;;;12.80;99.90;;;;;;6315746;22;20422;-75
2023/01/14 10:34:11;;;;;;;4.90;0.90;;;12.80;99.90;;;;;;6342535;22;20029;-73
2023/01/14 10:36:37;;;;;;;2.45;0.85;;;12.80;99.90;;;;;;6342938;22;20006;-75
2023/01/14 10:39:03;;;;;;;3.15;0.63;;;12.80;99.90;;;;;;6343302;22;20059;-74
2023/01/14 10:44:22;;;;;;;0.85;0.47;;;12.80;99.90;;;;;;6342883;22;20010;-72
2023/01/14 10:46:49;;;;;;;1.25;0.63;;;12.80;99.90;;;;;;6343244;22;19995;-72
2023/01/14 10:49:19;;;;;;;1.58;0.57;;;12.80;99.90;;;;;;6315558;22;20007;-69
2023/01/14 10:51:49;;;;;;;2.20;0.57;;;12.80;99.90;;;;;;6314491;22;20007;-70
2023/01/14 10:54:21;;;;;;;2.42;0.60;;;12.80;99.90;;;;;;6342640;22;19999;-72
2023/01/14 10:56:51;;;;;;;1.92;0.82;;;12.80;99.90;;;;;;6314807;22;20002;-72
2023/01/14 10:59:25;;;;;;;2.60;0.65;;;12.80;99.90;;;;;;6315140;22;20491;-72
2023/01/14 11:01:50;;;;;;;3.03;0.80;;;12.80;99.90;;;;;;6315124;22;20002;-72
2023/01/14 11:04:16;;;;;;;2.55;0.80;;;12.80;99.90;;;;;;6343036;22;20033;-72
2023/01/14 11:06:43;;;;;;;1.45;0.57;;;12.80;99.90;;;;;;6343354;22;20331;-72
2023/01/14 11:09:21;;;;;;;3.22;0.80;;;12.80;99.90;;;;;;6343478;22;20124;-72
2023/01/14 11:11:46;;;;;;;2.10;0.57;;;12.80;99.90;;;;;;6315613;22;20006;-72
2023/01/14 11:14:35;;;;;;;1.58;0.60;;;12.80;99.90;;;;;;6314617;22;20041;-72
2023/01/14 11:17:29;;;;;;;1.88;0.57;;;12.80;99.90;;;;;;6342711;22;20014;-72
2023/01/14 11:20:23;;;;;;;1.35;0.50;;;12.80;99.90;;;;;;6342757;22;20024;-72
2023/01/14 11:22:58;;;;;;;1.77;0.50;;;12.90;99.90;;;;;;6342947;22;20002;-72
2023/01/14 11:25:24;;;;;;;1.92;0.60;;;12.90;99.90;;;;;;6343856;22;19994;-72
2023/01/14 11:27:51;;;;;;;1.63;0.60;;;12.90;99.90;;;;;;6343379;22;19999;-72
2023/01/14 11:30:19;;;;;;;1.35;0.45;;;13.00;99.90;;;;;;6343427;22;19999;-72
2023/01/14 11:32:49;;;;;;;2.17;0.30;;;12.90;99.90;;;;;;6343123;22;20003;-72
2023/01/14 11:35:26;;;;;;;2.40;0.52;;;12.90;99.90;;;;;;6342954;22;19998;-72
2023/01/14 11:37:56;;;;;;;1.80;0.50;;;13.00;99.90;;;;;;6342818;22;20331;-72
2023/01/14 11:43:26;;;;;;;1.45;0.40;;;13.00;99.90;;;;;;6342367;22;20060;-72
2023/01/14 11:46:15;;;;;;;2.20;0.40;;;13.00;99.90;;;;;;6342627;22;19995;-73
2023/01/14 11:48:41;;;;;;;1.58;0.45;;;13.00;99.90;;;;;;6314989;22;20043;-73
2023/01/14 11:51:19;;;;;;;1.40;0.40;;;13.10;99.90;;;;;;6314717;22;20007;-69
2023/01/14 11:53:46;;;;;;;1.80;0.38;;;13.10;99.90;;;;;;6342994;22;19999;-68
2023/01/14 11:56:17;;;;;;;0.88;0.40;;;13.10;99.90;;;;;;6342670;22;20447;-69
2023/01/14 11:58:43;;;;;;;1.58;0.40;;;13.10;99.90;;;;;;6342676;22;20006;-69
2023/01/14 12:01:28;;;;;;;1.20;0.35;;;13.10;99.90;;;;;;6314882;22;20021;-69
2023/01/14 12:04:02;;;;;;;1.02;0.30;;;13.00;99.90;;;;;;6342425;22;20033;-70
2023/01/14 12:06:59;;;;;;;1.20;0.40;;;13.10;99.90;;;;;;6342898;22;20309;-69
2023/01/14 12:09:33;;;;;;;1.05;0.30;;;13.10;99.90;;;;;;6282348;22;20052;-69
2023/01/14 12:12:03;;;;;;;0.93;0.43;;;13.10;99.90;;;;;;6343111;22;20021;-69
2023/01/14 12:17:24;;;;;;;1.23;0.32;;;13.20;99.90;;;;;;6342643;22;20072;-69
2023/01/14 12:19:57;;;;;;;2.35;0.40;;;13.20;99.90;;;;;;6343137;22;20003;-69
2023/01/14 12:22:30;;;;;;;;;;;13.20;99.90;;;;;;6343162;22;19995;-69
2023/01/14 12:25:06;;;;;;;1.75;0.32;;;13.20;99.90;;;;;;6343077;22;19899;-70
2023/01/14 12:27:46;;;;;;;0.82;0.40;;;13.20;99.90;;;;;;6343106;22;19999;-70
2023/01/14 12:30:31;;;;;;;1.75;0.47;;;13.20;99.90;;;;;;6315160;22;20094;-70
2023/01/14 12:33:09;;;;;;;1.02;0.40;;;13.20;99.90;;;;;;6342272;22;20074;-70
2023/01/14 12:35:47;;;;;;;0.52;0.47;;;13.20;99.90;;;;;;6315128;22;20003;-73
2023/01/14 12:47:13;;;;;;;0.70;0.30;;;13.30;99.90;;;;;;6342469;22;20057;-74
2023/01/14 12:49:40;;;;;;;0.55;0.32;;;13.30;99.90;;;;;;6340913;22;20003;-75
2023/01/14 12:52:07;;;;;;;1.88;0.40;;;13.30;99.90;;;;;;6313197;22;20089;-74
2023/01/14 12:54:35;;;;;;;0.98;0.40;;;13.40;99.90;;;;;;6314964;22;20096;-74
2023/01/14 12:57:03;;;;;;;1.23;0.40;;;13.40;99.90;;;;;;6314680;22;20056;-74
2023/01/14 12:59:34;;;;;;;1.17;0.30;;;13.40;99.90;;;;;;6342537;22;20009;-76
2023/01/14 13:02:32;;;;;;;2.13;0.40;;;13.50;99.90;;;;;;6342313;22;19999;-74
2023/01/14 13:05:08;;;;;;;1.40;0.45;;;13.50;99.90;;;;;;6307455;22;20005;-78
2023/01/14 13:07:56;;;;;;;1.05;0.60;;;13.50;99.90;;;;;;6313786;22;20002;-76
2023/01/14 13:10:30;;;;;;;1.15;0.40;;;13.50;99.90;;;;;;6343453;22;20388;-70
2023/01/14 13:12:56;;;;;;;0.85;0.50;;;13.50;99.90;;;;;;6342481;22;19999;-71
2023/01/14 13:15:30;;;;;;;0.60;0.30;;;13.60;99.90;;;;;;6315064;22;20019;-70
2023/01/14 13:18:01;;;;;;;0.93;0.32;;;13.50;99.90;;;;;;6316106;22;20339;-69
2023/01/14 13:20:29;;;;;;;0.65;0.30;;;13.60;99.90;;;;;;6343593;22;20002;-70
2023/01/14 13:23:00;;;;;;;0.80;0.40;;;13.60;99.90;;;;;;6343527;22;19995;-71
2023/01/14 13:25:42;;;;;;;0.70;0.30;;;13.60;99.90;;;;;;6315876;22;20332;-69
2023/01/14 13:28:30;;;;;;;0.90;0.40;;;13.60;99.90;;;;;;6344286;22;20304;-70
2023/01/14 13:31:15;;;;;;;2.85;0.50;;;13.60;99.90;;;;;;6317579;22;20013;-68
2023/01/14 13:33:41;;;;;;;1.48;0.50;;;13.60;99.90;;;;;;6345021;22;20030;-72
2023/01/14 13:36:06;;;;;;;0.82;0.43;;;13.60;99.90;;;;;;6345064;22;20431;-72
2023/01/14 13:38:33;;;;;;;1.50;0.50;;;13.60;99.90;;;;;;6315976;22;20024;-68
2023/01/14 13:41:08;;;;;;;0.77;0.50;;;13.60;99.90;;;;;;6316135;22;20010;-69
2023/01/14 13:43:46;;;;;;;1.50;0.65;;;13.60;99.90;;;;;;6343598;22;20087;-68
2023/01/14 13:46:19;;;;;;;1.13;0.50;;;13.70;99.90;;;;;;6342062;22;19999;-68
2023/01/14 13:48:52;;;;;;;1.50;0.57;;;13.70;99.90;;;;;;6340785;22;20006;-68